createdAt,value
2023-04-22T00:03:08.697Z,2.10
2023-04-22T00:08:11.820Z,2.10
2023-04-22T00:13:14.691Z,1.98
2023-04-22T00:18:17.945Z,1.98
2023-04-22T00:23:21.093Z,1.95
2023-04-22T00:28:23.861Z,1.92
2023-04-22T00:33:26.748Z,1.85
2023-04-22T00:38:29.767Z,1.60
2023-04-22T00:43:32.486Z,1.77
2023-04-22T00:48:37.149Z,1.77
2023-04-22T00:53:40.863Z,1.95
2023-04-22T00:58:44.407Z,1.70
2023-04-22T01:03:50.352Z,2.20
2023-04-22T01:08:53.342Z,2.00
2023-04-22T01:13:59.385Z,1.85
2023-04-22T01:19:02.791Z,1.75
2023-04-22T01:24:06.146Z,2.65
2023-04-22T01:29:08.972Z,1.92
2023-04-22T01:34:12.057Z,2.45
2023-04-22T01:39:15.218Z,2.63
2023-04-22T01:44:17.970Z,2.38
2023-04-22T01:49:21.205Z,1.80
2023-04-22T01:54:26.500Z,1.90
2023-04-22T01:59:29.105Z,3.67
2023-04-22T02:04:32.224Z,2.30
2023-04-22T02:09:35.813Z,2.25
2023-04-22T02:14:38.642Z,2.78
2023-04-22T02:19:41.510Z,2.38
2023-04-22T02:24:44.614Z,2.30
2023-04-22T02:29:47.383Z,2.83
2023-04-22T02:34:52.295Z,2.78
2023-04-22T02:39:56.677Z,2.08
2023-04-22T02:44:59.342Z,2.63
2023-04-22T02:50:02.364Z,2.15
2023-04-22T02:55:05.843Z,2.38
2023-04-22T03:00:10.324Z,2.35
2023-04-22T03:05:13.352Z,2.38
2023-04-22T03:10:16.382Z,2.83
2023-04-22T03:15:21.238Z,2.38
2023-04-22T03:20:24.332Z,2.67
2023-04-22T03:25:27.304Z,13.68
2023-04-22T03:30:31.933Z,12.30
2023-04-22T03:35:34.841Z,4.72
2023-04-22T03:40:38.012Z,2.85
2023-04-22T03:45:52.440Z,5.00
2023-04-22T03:50:59.599Z,4.55
2023-04-22T03:56:04.923Z,6.53
2023-04-22T04:01:11.537Z,27.73
2023-04-22T04:11:18.711Z,11.60
2023-04-22T04:16:22.539Z,5.65
2023-04-22T04:21:33.456Z,2.80
2023-04-22T04:26:37.883Z,2.08
2023-04-22T04:31:48.827Z,1.88
2023-04-22T04:36:51.689Z,1.88
2023-04-22T04:42:00.924Z,1.55
2023-04-22T04:47:07.052Z,1.67
2023-04-22T04:52:11.938Z,2.00
2023-04-22T04:57:15.244Z,1.48
2023-04-22T05:02:18.560Z,1.63
2023-04-22T05:07:22.060Z,1.30
2023-04-22T05:12:27.789Z,1.40
2023-04-22T05:17:32.153Z,1.58
2023-04-22T05:22:41.832Z,1.27
2023-04-22T05:33:09.179Z,1.25
2023-04-22T05:38:13.861Z,1.42
2023-04-22T05:43:19.096Z,1.30
2023-04-22T05:48:28.679Z,1.42
2023-04-22T05:53:36.395Z,1.45
2023-04-22T05:58:40.659Z,1.30
2023-04-22T06:03:50.898Z,1.20
2023-04-22T06:08:53.865Z,1.70
2023-04-22T06:13:56.519Z,1.15
2023-04-22T06:18:59.896Z,1.35
2023-04-22T06:24:06.330Z,1.00
2023-04-22T06:29:10.471Z,1.48
2023-04-22T06:34:15.085Z,1.00
2023-04-22T06:39:17.991Z,2.47
2023-04-22T06:44:22.499Z,1.25
2023-04-22T06:49:48.261Z,0.90
2023-04-22T06:55:14.290Z,1.13
2023-04-22T07:00:17.459Z,1.17
2023-04-22T07:05:21.426Z,0.90
2023-04-22T07:10:26.752Z,1.03
2023-04-22T07:15:48.020Z,0.85
2023-04-22T07:20:50.769Z,0.88
2023-04-22T07:25:54.089Z,1.13
2023-04-22T07:30:57.307Z,0.90
2023-04-22T07:36:00.740Z,1.45
2023-04-22T07:41:04.135Z,0.90
2023-04-22T07:46:08.037Z,1.27
2023-04-22T07:51:12.221Z,1.00
2023-04-22T07:56:15.312Z,0.95
2023-04-22T08:01:19.983Z,0.95
2023-04-22T08:06:23.928Z,0.90
2023-04-22T08:11:27.366Z,1.30
2023-04-22T08:16:31.346Z,1.00
2023-04-22T08:21:37.766Z,1.05
2023-04-22T08:26:41.801Z,1.15
2023-04-22T08:31:46.277Z,0.75
2023-04-22T08:42:22.960Z,0.93
2023-04-22T08:47:26.809Z,0.73
2023-04-22T08:52:31.590Z,1.10
2023-04-22T08:57:36.303Z,0.90
2023-04-22T09:02:42.051Z,1.15
2023-04-22T09:07:44.983Z,1.15
2023-04-22T09:12:48.652Z,1.25
2023-04-22T09:17:53.047Z,1.00
2023-04-22T09:22:57.245Z,1.20
2023-04-22T09:28:00.771Z,0.90
2023-04-22T09:33:06.476Z,1.20
2023-04-22T09:38:12.447Z,1.15
2023-04-22T09:43:20.858Z,1.30
2023-04-22T09:48:23.816Z,1.77
2023-04-22T09:53:26.404Z,1.17
2023-04-22T09:58:28.995Z,1.80
2023-04-22T10:03:32.062Z,1.30
2023-04-22T10:08:35.427Z,1.48
2023-04-22T10:13:38.021Z,1.58
2023-04-22T10:18:41.025Z,1.27
2023-04-22T10:23:48.630Z,1.02
2023-04-22T10:28:51.762Z,2.05
2023-04-22T10:34:14.706Z,1.30
2023-04-22T10:39:17.742Z,1.33
2023-04-22T10:44:22.172Z,1.40
2023-04-22T10:49:29.385Z,1.15
2023-04-22T10:54:36.546Z,1.05
2023-04-22T10:59:50.010Z,1.40
2023-04-22T11:05:12.970Z,1.20
2023-04-22T11:10:43.081Z,1.08
2023-04-22T11:15:50.174Z,1.42
2023-04-22T11:20:54.042Z,1.10
2023-04-22T11:26:02.687Z,2.33
2023-04-22T11:31:12.750Z,1.20
2023-04-22T11:36:16.041Z,0.90
2023-04-22T11:42:17.452Z,1.10
2023-04-22T11:47:20.153Z,0.90
2023-04-22T11:52:23.052Z,1.35
2023-04-22T11:57:26.669Z,0.70
2023-04-22T12:02:30.408Z,1.20
2023-04-22T12:07:34.670Z,0.88
2023-04-22T12:12:41.465Z,0.83
2023-04-22T12:17:46.483Z,1.00
2023-04-22T12:22:53.393Z,1.30
2023-04-22T12:27:58.189Z,0.98
2023-04-22T12:33:01.502Z,1.00
2023-04-22T12:38:04.550Z,1.92
2023-04-22T12:43:08.910Z,0.90
2023-04-22T12:48:12.062Z,0.80
2023-04-22T12:53:14.933Z,0.70
2023-04-22T12:58:17.758Z,1.13
2023-04-22T13:03:20.865Z,0.82
2023-04-22T13:08:23.783Z,1.08
2023-04-22T13:13:26.409Z,1.13
2023-04-22T13:18:29.433Z,0.60
2023-04-22T13:23:32.813Z,2.03
2023-04-22T13:28:36.347Z,1.00
2023-04-22T13:33:40.430Z,1.13
2023-04-22T13:38:43.395Z,0.70
2023-04-22T13:43:45.962Z,0.65
2023-04-22T13:48:49.314Z,0.63
2023-04-22T13:53:52.981Z,0.55
2023-04-22T13:58:58.113Z,0.90
2023-04-22T14:04:02.361Z,0.50
2023-04-22T14:09:05.563Z,0.60
2023-04-22T14:14:08.880Z,0.60
2023-04-22T14:19:12.792Z,0.50
2023-04-22T14:24:15.816Z,0.95
2023-04-22T14:29:19.182Z,2.28
2023-04-22T14:34:21.951Z,1.48
2023-04-22T14:39:24.568Z,2.38
2023-04-22T14:44:27.319Z,12.70
2023-04-22T14:49:31.005Z,1.27
2023-04-22T14:54:35.601Z,1.02
2023-04-22T14:59:38.983Z,1.70
2023-04-22T15:04:46.412Z,1.08
2023-04-22T15:09:49.044Z,1.20
2023-04-22T15:14:52.458Z,0.93
2023-04-22T15:19:58.824Z,1.33
2023-04-22T15:25:03.198Z,0.60
2023-04-22T15:30:08.629Z,0.80
2023-04-22T15:35:13.047Z,0.70
2023-04-22T15:40:15.898Z,1.17
2023-04-22T15:45:18.662Z,1.20
2023-04-22T15:50:23.594Z,0.80
2023-04-22T16:00:30.203Z,0.80
2023-04-22T16:05:35.208Z,1.30
2023-04-22T16:10:39.376Z,2.93
2023-04-22T16:15:43.729Z,0.73
2023-04-22T16:20:46.343Z,0.88
2023-04-22T16:25:50.259Z,1.70
2023-04-22T16:30:52.881Z,1.65
2023-04-22T16:35:55.661Z,2.22
2023-04-22T16:40:59.723Z,0.60
2023-04-22T16:46:04.178Z,0.67
2023-04-22T16:51:08.619Z,0.90
2023-04-22T16:56:13.197Z,0.90
2023-04-22T17:01:16.233Z,0.60
2023-04-22T17:06:19.921Z,1.27
2023-04-22T17:11:24.611Z,0.93
2023-04-22T17:16:28.804Z,0.57
2023-04-22T17:21:32.883Z,0.93
2023-04-22T17:26:37.616Z,1.35
2023-04-22T17:31:42.060Z,0.55
2023-04-22T17:36:45.728Z,1.00
2023-04-22T17:41:48.936Z,1.17
2023-04-22T17:46:51.740Z,0.88
2023-04-22T17:51:54.854Z,1.33
2023-04-22T17:56:57.757Z,1.23
2023-04-22T18:02:01.613Z,2.30
2023-04-22T18:07:05.980Z,6.80
2023-04-22T18:12:10.308Z,4.23
2023-04-22T18:17:14.617Z,3.83
2023-04-22T18:22:19.108Z,3.63
2023-04-22T18:27:23.499Z,2.40
2023-04-22T18:32:27.106Z,2.03
2023-04-22T18:37:33.091Z,9.60
2023-04-22T18:42:37.520Z,8.45
2023-04-22T18:47:42.071Z,6.33
2023-04-22T18:52:45.752Z,6.68
2023-04-22T18:57:48.811Z,3.00
2023-04-22T19:02:51.574Z,2.97
2023-04-22T19:07:54.126Z,2.45
2023-04-22T19:12:56.986Z,2.55
2023-04-22T19:18:00.379Z,2.72
2023-04-22T19:23:04.061Z,8.25
2023-04-22T19:28:07.950Z,21.45
2023-04-22T19:33:11.755Z,16.50
2023-04-22T19:38:19.125Z,20.37
2023-04-22T19:43:22.784Z,27.67
2023-04-22T19:48:27.035Z,14.38
2023-04-22T19:53:32.058Z,13.50
2023-04-22T20:03:38.751Z,10.10
2023-04-22T20:08:42.414Z,7.57
2023-04-22T20:13:46.188Z,6.47
2023-04-22T20:18:53.734Z,6.25
2023-04-22T20:23:58.087Z,5.82
2023-04-22T20:29:01.786Z,6.03
2023-04-22T20:34:05.067Z,5.53
2023-04-22T20:39:09.264Z,5.53
2023-04-22T20:44:12.135Z,5.87
2023-04-22T20:49:14.787Z,5.32
2023-04-22T20:54:28.293Z,6.32
2023-04-22T20:59:33.338Z,7.30
2023-04-22T21:04:36.408Z,5.45
2023-04-22T21:09:40.508Z,5.97
2023-04-22T21:14:43.990Z,5.55
2023-04-22T21:19:50.533Z,5.13
2023-04-22T21:24:54.418Z,5.22
2023-04-22T21:29:57.580Z,4.82
2023-04-22T21:35:00.651Z,4.20
2023-04-22T21:40:03.404Z,3.40
2023-04-22T21:45:07.110Z,4.05
2023-04-22T21:50:10.317Z,4.50
2023-04-22T21:55:13.012Z,4.30
2023-04-22T22:00:19.273Z,3.78
2023-04-22T22:05:21.935Z,4.07
2023-04-22T22:10:25.284Z,3.50
2023-04-22T22:15:27.760Z,3.70
2023-04-22T22:20:31.085Z,5.47
2023-04-22T22:25:34.697Z,4.88
2023-04-22T22:30:37.531Z,4.75
2023-04-22T22:35:40.457Z,3.83
2023-04-22T22:40:43.078Z,3.67
2023-04-22T22:45:46.470Z,3.15
2023-04-22T22:50:49.039Z,3.67
2023-04-22T22:55:51.974Z,2.50
2023-04-22T23:00:55.122Z,3.80
2023-04-22T23:05:58.527Z,2.65
2023-04-22T23:11:02.063Z,2.97
2023-04-22T23:16:05.192Z,3.40
2023-04-22T23:21:08.397Z,3.10
2023-04-22T23:26:11.944Z,2.97
2023-04-22T23:31:18.296Z,3.40
2023-04-22T23:36:22.771Z,15.43
2023-04-22T23:41:25.641Z,5.73
2023-04-22T23:46:28.387Z,5.13
2023-04-22T23:51:31.062Z,3.78
2023-04-22T23:56:34.064Z,3.63
